sensor_id;sensor_type;location;lat;lon;timestamp;P1;durP1;ratioP1;P2;durP2;ratioP2
19032;SDS011;9649;51.042;13.804;2022-11-10T00:01:22;16.83;;;9.50;;
19032;SDS011;9649;51.042;13.804;2022-11-10T00:06:26;15.03;;;9.47;;
19032;SDS011;9649;51.042;13.804;2022-11-10T00:11:29;13.63;;;8.67;;
19032;SDS011;9649;51.042;13.804;2022-11-10T00:16:32;14.63;;;9.47;;
19032;SDS011;9649;51.042;13.804;2022-11-10T00:21:54;15.70;;;8.73;;
19032;SDS011;9649;51.042;13.804;2022-11-10T00:26:57;15.47;;;8.87;;
19032;SDS011;9649;51.042;13.804;2022-11-10T00:32:00;13.43;;;8.57;;
19032;SDS011;9649;51.042;13.804;2022-11-10T00:37:04;16.27;;;8.57;;
19032;SDS011;9649;51.042;13.804;2022-11-10T00:42:07;17.47;;;9.07;;
19032;SDS011;9649;51.042;13.804;2022-11-10T00:47:10;15.13;;;9.20;;
19032;SDS011;9649;51.042;13.804;2022-11-10T00:52:15;15.17;;;8.40;;
19032;SDS011;9649;51.042;13.804;2022-11-10T00:57:18;18.50;;;9.77;;
19032;SDS011;9649;51.042;13.804;2022-11-10T01:02:21;11.97;;;8.40;;
19032;SDS011;9649;51.042;13.804;2022-11-10T01:07:25;18.97;;;9.30;;
19032;SDS011;9649;51.042;13.804;2022-11-10T01:12:28;14.63;;;8.10;;
19032;SDS011;9649;51.042;13.804;2022-11-10T01:17:31;16.03;;;8.30;;
19032;SDS011;9649;51.042;13.804;2022-11-10T01:22:35;13.93;;;8.43;;
19032;SDS011;9649;51.042;13.804;2022-11-10T01:27:38;15.27;;;8.20;;
19032;SDS011;9649;51.042;13.804;2022-11-10T01:32:41;15.83;;;9.00;;
19032;SDS011;9649;51.042;13.804;2022-11-10T01:37:45;16.40;;;9.97;;
19032;SDS011;9649;51.042;13.804;2022-11-10T01:42:49;18.10;;;10.27;;
19032;SDS011;9649;51.042;13.804;2022-11-10T01:47:55;17.27;;;9.60;;
19032;SDS011;9649;51.042;13.804;2022-11-10T01:53:03;20.87;;;10.43;;
19032;SDS011;9649;51.042;13.804;2022-11-10T01:58:08;17.60;;;10.13;;
19032;SDS011;9649;51.042;13.804;2022-11-10T02:03:14;16.70;;;8.90;;
19032;SDS011;9649;51.042;13.804;2022-11-10T02:08:22;17.80;;;10.20;;
19032;SDS011;9649;51.042;13.804;2022-11-10T02:13:26;17.60;;;10.10;;
19032;SDS011;9649;51.042;13.804;2022-11-10T02:18:29;19.17;;;10.73;;
19032;SDS011;9649;51.042;13.804;2022-11-10T02:23:48;18.57;;;9.97;;
19032;SDS011;9649;51.042;13.804;2022-11-10T02:28:52;16.23;;;9.77;;
19032;SDS011;9649;51.042;13.804;2022-11-10T02:33:55;17.73;;;9.60;;
19032;SDS011;9649;51.042;13.804;2022-11-10T02:38:59;15.87;;;8.57;;
19032;SDS011;9649;51.042;13.804;2022-11-10T02:44:03;14.13;;;7.80;;
19032;SDS011;9649;51.042;13.804;2022-11-10T02:49:07;14.17;;;7.50;;
19032;SDS011;9649;51.042;13.804;2022-11-10T02:54:11;15.33;;;7.13;;
19032;SDS011;9649;51.042;13.804;2022-11-10T02:59:14;11.93;;;6.33;;
19032;SDS011;9649;51.042;13.804;2022-11-10T03:04:17;10.77;;;6.20;;
19032;SDS011;9649;51.042;13.804;2022-11-10T03:09:21;12.17;;;6.90;;
19032;SDS011;9649;51.042;13.804;2022-11-10T03:14:24;11.93;;;7.43;;
19032;SDS011;9649;51.042;13.804;2022-11-10T03:19:27;12.83;;;6.33;;
19032;SDS011;9649;51.042;13.804;2022-11-10T03:24:31;13.27;;;6.83;;
19032;SDS011;9649;51.042;13.804;2022-11-10T03:29:34;13.30;;;6.30;;
19032;SDS011;9649;51.042;13.804;2022-11-10T03:34:36;10.90;;;6.30;;
19032;SDS011;9649;51.042;13.804;2022-11-10T03:39:41;9.90;;;5.40;;
19032;SDS011;9649;51.042;13.804;2022-11-10T03:44:43;12.93;;;5.70;;
19032;SDS011;9649;51.042;13.804;2022-11-10T03:49:46;9.10;;;5.57;;
19032;SDS011;9649;51.042;13.804;2022-11-10T03:54:50;11.97;;;6.13;;
19032;SDS011;9649;51.042;13.804;2022-11-10T03:59:53;12.27;;;5.73;;
19032;SDS011;9649;51.042;13.804;2022-11-10T04:04:56;11.83;;;5.07;;
19032;SDS011;9649;51.042;13.804;2022-11-10T04:10:18;10.10;;;4.73;;
19032;SDS011;9649;51.042;13.804;2022-11-10T04:15:20;13.10;;;5.30;;
19032;SDS011;9649;51.042;13.804;2022-11-10T04:20:41;11.50;;;5.80;;
19032;SDS011;9649;51.042;13.804;2022-11-10T04:25:45;9.33;;;4.87;;
19032;SDS011;9649;51.042;13.804;2022-11-10T04:31:02;11.00;;;4.77;;
19032;SDS011;9649;51.042;13.804;2022-11-10T04:36:05;12.13;;;4.80;;
19032;SDS011;9649;51.042;13.804;2022-11-10T04:41:10;10.97;;;4.73;;
19032;SDS011;9649;51.042;13.804;2022-11-10T04:46:17;12.17;;;4.40;;
19032;SDS011;9649;51.042;13.804;2022-11-10T04:51:23;9.03;;;3.77;;
19032;SDS011;9649;51.042;13.804;2022-11-10T04:56:29;11.43;;;4.23;;
19032;SDS011;9649;51.042;13.804;2022-11-10T05:01:31;8.53;;;3.30;;
19032;SDS011;9649;51.042;13.804;2022-11-10T05:06:34;8.43;;;2.90;;
19032;SDS011;9649;51.042;13.804;2022-11-10T05:11:39;10.30;;;2.60;;
19032;SDS011;9649;51.042;13.804;2022-11-10T05:16:41;5.97;;;2.40;;
19032;SDS011;9649;51.042;13.804;2022-11-10T05:21:44;7.40;;;2.47;;
19032;SDS011;9649;51.042;13.804;2022-11-10T05:26:48;8.53;;;3.00;;
19032;SDS011;9649;51.042;13.804;2022-11-10T05:31:51;9.80;;;3.40;;
19032;SDS011;9649;51.042;13.804;2022-11-10T05:36:54;9.93;;;3.30;;
19032;SDS011;9649;51.042;13.804;2022-11-10T05:41:58;11.43;;;4.80;;
19032;SDS011;9649;51.042;13.804;2022-11-10T05:47:01;8.00;;;2.33;;
19032;SDS011;9649;51.042;13.804;2022-11-10T05:52:04;14.60;;;4.37;;
19032;SDS011;9649;51.042;13.804;2022-11-10T05:57:09;42.73;;;23.23;;
19032;SDS011;9649;51.042;13.804;2022-11-10T06:02:12;10.57;;;5.80;;
19032;SDS011;9649;51.042;13.804;2022-11-10T06:07:15;14.07;;;7.97;;
19032;SDS011;9649;51.042;13.804;2022-11-10T06:12:19;16.60;;;5.97;;
19032;SDS011;9649;51.042;13.804;2022-11-10T06:17:25;12.43;;;4.20;;
19032;SDS011;9649;51.042;13.804;2022-11-10T06:22:28;9.10;;;3.60;;
19032;SDS011;9649;51.042;13.804;2022-11-10T06:27:32;12.60;;;3.73;;
19032;SDS011;9649;51.042;13.804;2022-11-10T06:32:35;8.60;;;3.80;;
19032;SDS011;9649;51.042;13.804;2022-11-10T06:37:38;11.70;;;3.87;;
19032;SDS011;9649;51.042;13.804;2022-11-10T06:42:42;7.63;;;4.00;;
19032;SDS011;9649;51.042;13.804;2022-11-10T06:47:45;7.17;;;3.83;;
19032;SDS011;9649;51.042;13.804;2022-11-10T06:52:52;10.83;;;4.53;;
19032;SDS011;9649;51.042;13.804;2022-11-10T06:57:56;8.90;;;3.13;;
19032;SDS011;9649;51.042;13.804;2022-11-10T07:03:00;8.90;;;2.90;;
19032;SDS011;9649;51.042;13.804;2022-11-10T07:08:03;7.07;;;2.40;;
19032;SDS011;9649;51.042;13.804;2022-11-10T07:13:09;8.43;;;2.40;;
19032;SDS011;9649;51.042;13.804;2022-11-10T07:18:12;7.60;;;2.27;;
19032;SDS011;9649;51.042;13.804;2022-11-10T07:23:15;6.47;;;2.00;;
19032;SDS011;9649;51.042;13.804;2022-11-10T07:28:19;7.47;;;1.90;;
19032;SDS011;9649;51.042;13.804;2022-11-10T07:33:28;8.43;;;1.87;;
19032;SDS011;9649;51.042;13.804;2022-11-10T07:38:31;5.50;;;2.23;;
19032;SDS011;9649;51.042;13.804;2022-11-10T07:43:35;6.80;;;1.57;;
19032;SDS011;9649;51.042;13.804;2022-11-10T07:48:38;6.90;;;1.90;;
19032;SDS011;9649;51.042;13.804;2022-11-10T07:53:41;7.23;;;1.33;;
19032;SDS011;9649;51.042;13.804;2022-11-10T07:58:46;5.93;;;1.50;;
19032;SDS011;9649;51.042;13.804;2022-11-10T08:03:49;8.43;;;1.50;;
19032;SDS011;9649;51.042;13.804;2022-11-10T08:08:52;5.27;;;1.40;;
19032;SDS011;9649;51.042;13.804;2022-11-10T08:13:56;8.23;;;1.57;;
19032;SDS011;9649;51.042;13.804;2022-11-10T08:18:59;7.03;;;1.60;;
19032;SDS011;9649;51.042;13.804;2022-11-10T08:24:02;11.97;;;2.00;;
19032;SDS011;9649;51.042;13.804;2022-11-10T08:29:06;7.53;;;1.60;;
19032;SDS011;9649;51.042;13.804;2022-11-10T08:34:09;9.53;;;3.10;;
19032;SDS011;9649;51.042;13.804;2022-11-10T08:39:12;6.47;;;1.67;;
19032;SDS011;9649;51.042;13.804;2022-11-10T08:44:36;5.72;;;1.60;;
19032;SDS011;9649;51.042;13.804;2022-11-10T08:49:39;7.05;;;2.20;;
19032;SDS011;9649;51.042;13.804;2022-11-10T08:54:41;4.68;;;1.17;;
19032;SDS011;9649;51.042;13.804;2022-11-10T08:59:46;5.72;;;1.20;;
19032;SDS011;9649;51.042;13.804;2022-11-10T09:04:48;9.43;;;1.63;;
19032;SDS011;9649;51.042;13.804;2022-11-10T09:09:51;6.45;;;1.40;;
19032;SDS011;9649;51.042;13.804;2022-11-10T09:15:09;4.05;;;1.40;;
19032;SDS011;9649;51.042;13.804;2022-11-10T09:20:12;8.65;;;1.58;;
19032;SDS011;9649;51.042;13.804;2022-11-10T09:25:15;4.60;;;1.45;;
19032;SDS011;9649;51.042;13.804;2022-11-10T09:30:19;6.65;;;1.55;;
19032;SDS011;9649;51.042;13.804;2022-11-10T09:35:23;3.97;;;1.17;;
19032;SDS011;9649;51.042;13.804;2022-11-10T09:40:27;5.25;;;1.38;;
19032;SDS011;9649;51.042;13.804;2022-11-10T09:45:36;6.00;;;1.52;;
19032;SDS011;9649;51.042;13.804;2022-11-10T09:50:43;4.38;;;1.30;;
19032;SDS011;9649;51.042;13.804;2022-11-10T09:55:50;9.35;;;1.67;;
19032;SDS011;9649;51.042;13.804;2022-11-10T10:01:01;8.35;;;1.50;;
19032;SDS011;9649;51.042;13.804;2022-11-10T10:06:16;7.10;;;1.45;;
19032;SDS011;9649;51.042;13.804;2022-11-10T10:11:25;7.00;;;1.20;;
19032;SDS011;9649;51.042;13.804;2022-11-10T10:16:41;7.10;;;1.85;;
19032;SDS011;9649;51.042;13.804;2022-11-10T10:21:57;4.93;;;1.42;;
19032;SDS011;9649;51.042;13.804;2022-11-10T10:27:16;6.13;;;1.67;;
19032;SDS011;9649;51.042;13.804;2022-11-10T10:32:24;9.80;;;1.77;;
19032;SDS011;9649;51.042;13.804;2022-11-10T10:37:29;6.60;;;1.48;;
19032;SDS011;9649;51.042;13.804;2022-11-10T10:42:40;6.82;;;1.80;;
19032;SDS011;9649;51.042;13.804;2022-11-10T10:47:44;6.80;;;1.45;;
19032;SDS011;9649;51.042;13.804;2022-11-10T10:58:17;5.72;;;1.45;;
19032;SDS011;9649;51.042;13.804;2022-11-10T11:03:25;5.70;;;1.40;;
19032;SDS011;9649;51.042;13.804;2022-11-10T11:08:30;6.18;;;1.80;;
19032;SDS011;9649;51.042;13.804;2022-11-10T11:13:33;8.73;;;1.67;;
19032;SDS011;9649;51.042;13.804;2022-11-10T11:18:37;5.35;;;1.63;;
19032;SDS011;9649;51.042;13.804;2022-11-10T11:23:54;6.68;;;1.50;;
19032;SDS011;9649;51.042;13.804;2022-11-10T11:29:20;7.05;;;1.40;;
19032;SDS011;9649;51.042;13.804;2022-11-10T11:34:35;6.13;;;1.77;;
19032;SDS011;9649;51.042;13.804;2022-11-10T11:39:47;5.10;;;1.88;;
19032;SDS011;9649;51.042;13.804;2022-11-10T11:45:05;5.32;;;1.23;;
19032;SDS011;9649;51.042;13.804;2022-11-10T11:50:22;4.43;;;1.30;;
19032;SDS011;9649;51.042;13.804;2022-11-10T11:55:32;3.75;;;1.30;;
19032;SDS011;9649;51.042;13.804;2022-11-10T12:00:43;3.97;;;1.38;;
19032;SDS011;9649;51.042;13.804;2022-11-10T12:06:11;6.43;;;1.45;;
19032;SDS011;9649;51.042;13.804;2022-11-10T12:11:26;5.15;;;1.50;;
19032;SDS011;9649;51.042;13.804;2022-11-10T12:16:37;4.32;;;1.23;;
19032;SDS011;9649;51.042;13.804;2022-11-10T12:21:48;3.70;;;1.20;;
19032;SDS011;9649;51.042;13.804;2022-11-10T12:26:54;4.32;;;1.30;;
19032;SDS011;9649;51.042;13.804;2022-11-10T12:32:01;3.83;;;1.23;;
19032;SDS011;9649;51.042;13.804;2022-11-10T12:37:11;4.28;;;1.10;;
19032;SDS011;9649;51.042;13.804;2022-11-10T12:42:26;5.75;;;1.30;;
19032;SDS011;9649;51.042;13.804;2022-11-10T12:47:32;4.05;;;1.30;;
19032;SDS011;9649;51.042;13.804;2022-11-10T12:52:42;6.70;;;1.67;;
19032;SDS011;9649;51.042;13.804;2022-11-10T12:57:50;5.45;;;1.45;;
19032;SDS011;9649;51.042;13.804;2022-11-10T13:02:53;6.18;;;1.58;;
19032;SDS011;9649;51.042;13.804;2022-11-10T13:08:05;3.28;;;1.15;;
19032;SDS011;9649;51.042;13.804;2022-11-10T13:13:14;6.43;;;1.52;;
19032;SDS011;9649;51.042;13.804;2022-11-10T13:18:21;3.65;;;1.13;;
19032;SDS011;9649;51.042;13.804;2022-11-10T13:29:31;5.32;;;1.33;;
19032;SDS011;9649;51.042;13.804;2022-11-10T13:34:39;8.30;;;1.58;;
19032;SDS011;9649;51.042;13.804;2022-11-10T13:39:45;6.38;;;1.73;;
19032;SDS011;9649;51.042;13.804;2022-11-10T13:44:48;5.93;;;1.30;;
19032;SDS011;9649;51.042;13.804;2022-11-10T13:49:54;6.20;;;1.20;;
19032;SDS011;9649;51.042;13.804;2022-11-10T13:55:10;8.43;;;1.33;;
19032;SDS011;9649;51.042;13.804;2022-11-10T14:00:22;4.30;;;1.42;;
19032;SDS011;9649;51.042;13.804;2022-11-10T14:11:10;5.68;;;1.65;;
19032;SDS011;9649;51.042;13.804;2022-11-10T14:16:17;6.28;;;1.77;;
19032;SDS011;9649;51.042;13.804;2022-11-10T14:21:35;4.28;;;1.40;;
19032;SDS011;9649;51.042;13.804;2022-11-10T14:26:45;3.63;;;1.30;;
19032;SDS011;9649;51.042;13.804;2022-11-10T14:31:52;6.78;;;1.60;;
19032;SDS011;9649;51.042;13.804;2022-11-10T14:36:55;8.80;;;1.52;;
19032;SDS011;9649;51.042;13.804;2022-11-10T14:42:05;10.63;;;1.42;;
19032;SDS011;9649;51.042;13.804;2022-11-10T14:47:12;4.13;;;1.33;;
19032;SDS011;9649;51.042;13.804;2022-11-10T14:52:16;6.50;;;1.38;;
19032;SDS011;9649;51.042;13.804;2022-11-10T14:57:20;5.00;;;1.33;;
19032;SDS011;9649;51.042;13.804;2022-11-10T15:02:23;9.00;;;1.80;;
19032;SDS011;9649;51.042;13.804;2022-11-10T15:07:26;4.20;;;1.60;;
19032;SDS011;9649;51.042;13.804;2022-11-10T15:12:30;7.47;;;2.15;;
19032;SDS011;9649;51.042;13.804;2022-11-10T15:17:44;5.35;;;1.67;;
19032;SDS011;9649;51.042;13.804;2022-11-10T15:22:49;6.22;;;1.60;;
19032;SDS011;9649;51.042;13.804;2022-11-10T15:27:55;5.93;;;1.83;;
19032;SDS011;9649;51.042;13.804;2022-11-10T15:33:06;4.38;;;1.67;;
19032;SDS011;9649;51.042;13.804;2022-11-10T15:38:19;10.77;;;1.98;;
19032;SDS011;9649;51.042;13.804;2022-11-10T15:43:30;9.27;;;1.77;;
19032;SDS011;9649;51.042;13.804;2022-11-10T15:48:35;10.82;;;1.90;;
19032;SDS011;9649;51.042;13.804;2022-11-10T15:53:40;6.93;;;2.00;;
19032;SDS011;9649;51.042;13.804;2022-11-10T15:58:46;5.13;;;1.65;;
19032;SDS011;9649;51.042;13.804;2022-11-10T16:03:51;8.20;;;1.88;;
19032;SDS011;9649;51.042;13.804;2022-11-10T16:08:54;8.43;;;1.80;;
19032;SDS011;9649;51.042;13.804;2022-11-10T16:13:58;9.90;;;2.45;;
19032;SDS011;9649;51.042;13.804;2022-11-10T16:24:19;9.75;;;2.72;;
19032;SDS011;9649;51.042;13.804;2022-11-10T16:35:24;7.55;;;2.60;;
19032;SDS011;9649;51.042;13.804;2022-11-10T16:40:36;9.52;;;2.55;;
19032;SDS011;9649;51.042;13.804;2022-11-10T16:45:43;10.07;;;2.35;;
19032;SDS011;9649;51.042;13.804;2022-11-10T16:50:51;6.93;;;2.38;;
19032;SDS011;9649;51.042;13.804;2022-11-10T16:56:27;8.98;;;2.25;;
19032;SDS011;9649;51.042;13.804;2022-11-10T17:01:48;10.40;;;2.47;;
19032;SDS011;9649;51.042;13.804;2022-11-10T17:13:32;7.93;;;2.77;;
19032;SDS011;9649;51.042;13.804;2022-11-10T17:24:40;16.47;;;3.70;;
19032;SDS011;9649;51.042;13.804;2022-11-10T17:30:54;8.65;;;3.03;;
19032;SDS011;9649;51.042;13.804;2022-11-10T17:36:01;10.27;;;3.53;;
19032;SDS011;9649;51.042;13.804;2022-11-10T17:41:11;7.10;;;3.30;;
19032;SDS011;9649;51.042;13.804;2022-11-10T17:46:15;7.45;;;3.38;;
19032;SDS011;9649;51.042;13.804;2022-11-10T17:51:53;14.30;;;3.87;;
19032;SDS011;9649;51.042;13.804;2022-11-10T17:56:56;12.03;;;3.37;;
19032;SDS011;9649;51.042;13.804;2022-11-10T18:01:59;8.83;;;3.17;;
19032;SDS011;9649;51.042;13.804;2022-11-10T18:07:06;9.70;;;3.40;;
19032;SDS011;9649;51.042;13.804;2022-11-10T18:12:11;8.07;;;4.17;;
19032;SDS011;9649;51.042;13.804;2022-11-10T18:17:14;13.40;;;3.70;;
19032;SDS011;9649;51.042;13.804;2022-11-10T18:22:18;9.83;;;3.67;;
19032;SDS011;9649;51.042;13.804;2022-11-10T18:27:21;15.17;;;4.03;;
19032;SDS011;9649;51.042;13.804;2022-11-10T18:32:25;7.70;;;3.20;;
19032;SDS011;9649;51.042;13.804;2022-11-10T18:37:30;16.00;;;6.57;;
19032;SDS011;9649;51.042;13.804;2022-11-10T18:42:39;15.53;;;7.13;;
19032;SDS011;9649;51.042;13.804;2022-11-10T18:47:41;16.40;;;7.60;;
19032;SDS011;9649;51.042;13.804;2022-11-10T18:52:46;16.80;;;8.17;;
19032;SDS011;9649;51.042;13.804;2022-11-10T18:57:49;10.77;;;5.63;;
19032;SDS011;9649;51.042;13.804;2022-11-10T19:02:53;16.77;;;6.93;;
19032;SDS011;9649;51.042;13.804;2022-11-10T19:07:57;13.93;;;5.90;;
19032;SDS011;9649;51.042;13.804;2022-11-10T19:13:00;12.23;;;6.00;;
19032;SDS011;9649;51.042;13.804;2022-11-10T19:18:03;16.20;;;6.50;;
19032;SDS011;9649;51.042;13.804;2022-11-10T19:23:07;24.50;;;10.73;;
19032;SDS011;9649;51.042;13.804;2022-11-10T19:28:10;19.77;;;8.47;;
19032;SDS011;9649;51.042;13.804;2022-11-10T19:33:13;20.00;;;8.97;;
19032;SDS011;9649;51.042;13.804;2022-11-10T19:38:19;24.27;;;10.60;;
19032;SDS011;9649;51.042;13.804;2022-11-10T19:43:22;21.43;;;8.97;;
19032;SDS011;9649;51.042;13.804;2022-11-10T19:48:26;19.83;;;8.50;;
19032;SDS011;9649;51.042;13.804;2022-11-10T19:53:30;10.87;;;6.13;;
19032;SDS011;9649;51.042;13.804;2022-11-10T20:29:45;15.13;;;5.77;;
19032;SDS011;9649;51.042;13.804;2022-11-10T20:34:48;16.47;;;6.07;;
19032;SDS011;9649;51.042;13.804;2022-11-10T20:39:51;20.60;;;6.60;;
19032;SDS011;9649;51.042;13.804;2022-11-10T20:44:55;14.30;;;6.17;;
19032;SDS011;9649;51.042;13.804;2022-11-10T20:49:58;10.80;;;5.07;;
19032;SDS011;9649;51.042;13.804;2022-11-10T20:55:01;11.83;;;4.57;;
19032;SDS011;9649;51.042;13.804;2022-11-10T21:00:07;15.63;;;6.03;;
19032;SDS011;9649;51.042;13.804;2022-11-10T21:05:11;16.67;;;6.30;;
19032;SDS011;9649;51.042;13.804;2022-11-10T21:10:14;12.90;;;5.57;;
19032;SDS011;9649;51.042;13.804;2022-11-10T21:15:19;11.07;;;5.03;;
19032;SDS011;9649;51.042;13.804;2022-11-10T21:20:22;16.97;;;4.37;;
19032;SDS011;9649;51.042;13.804;2022-11-10T21:25:25;12.27;;;4.10;;
19032;SDS011;9649;51.042;13.804;2022-11-10T21:30:29;13.37;;;4.60;;
19032;SDS011;9649;51.042;13.804;2022-11-10T21:35:33;15.77;;;4.27;;
19032;SDS011;9649;51.042;13.804;2022-11-10T21:40:38;9.30;;;4.43;;
19032;SDS011;9649;51.042;13.804;2022-11-10T21:45:42;15.20;;;4.80;;
19032;SDS011;9649;51.042;13.804;2022-11-10T21:50:45;13.50;;;4.73;;
19032;SDS011;9649;51.042;13.804;2022-11-10T21:55:48;13.20;;;3.77;;
19032;SDS011;9649;51.042;13.804;2022-11-10T22:00:52;13.10;;;3.60;;
19032;SDS011;9649;51.042;13.804;2022-11-10T22:06:01;9.20;;;4.10;;
19032;SDS011;9649;51.042;13.804;2022-11-10T22:11:05;12.30;;;4.60;;
19032;SDS011;9649;51.042;13.804;2022-11-10T22:16:32;14.57;;;4.87;;
19032;SDS011;9649;51.042;13.804;2022-11-10T22:21:59;10.73;;;4.57;;
19032;SDS011;9649;51.042;13.804;2022-11-10T22:27:04;12.80;;;4.73;;
19032;SDS011;9649;51.042;13.804;2022-11-10T22:32:09;15.50;;;5.33;;
19032;SDS011;9649;51.042;13.804;2022-11-10T22:37:12;14.00;;;5.80;;
19032;SDS011;9649;51.042;13.804;2022-11-10T22:42:15;15.63;;;5.77;;
19032;SDS011;9649;51.042;13.804;2022-11-10T22:47:37;12.43;;;5.20;;
19032;SDS011;9649;51.042;13.804;2022-11-10T22:52:57;11.17;;;4.87;;
19032;SDS011;9649;51.042;13.804;2022-11-10T22:58:00;13.33;;;5.23;;
19032;SDS011;9649;51.042;13.804;2022-11-10T23:03:04;20.10;;;5.30;;
19032;SDS011;9649;51.042;13.804;2022-11-10T23:08:07;11.97;;;4.80;;
19032;SDS011;9649;51.042;13.804;2022-11-10T23:13:10;13.30;;;5.37;;
19032;SDS011;9649;51.042;13.804;2022-11-10T23:18:14;17.50;;;5.40;;
19032;SDS011;9649;51.042;13.804;2022-11-10T23:23:17;11.40;;;4.63;;
19032;SDS011;9649;51.042;13.804;2022-11-10T23:28:20;11.03;;;5.00;;
19032;SDS011;9649;51.042;13.804;2022-11-10T23:33:24;10.27;;;5.00;;
19032;SDS011;9649;51.042;13.804;2022-11-10T23:38:33;10.80;;;5.10;;
19032;SDS011;9649;51.042;13.804;2022-11-10T23:43:37;13.90;;;5.77;;
19032;SDS011;9649;51.042;13.804;2022-11-10T23:48:42;11.77;;;4.90;;
19032;SDS011;9649;51.042;13.804;2022-11-10T23:53:44;12.07;;;5.33;;
19032;SDS011;9649;51.042;13.804;2022-11-10T23:58:47;13.63;;;4.97;;
